createdAt,value
2022-11-30T00:00:02.589Z,51.55
2022-11-30T00:02:30.140Z,51.17
2022-11-30T00:04:56.719Z,51.11
2022-11-30T00:07:25.851Z,51.09
2022-11-30T00:09:52.429Z,51.26
2022-11-30T00:12:18.978Z,50.96
2022-11-30T00:14:45.811Z,51.27
2022-11-30T00:17:12.468Z,50.94
2022-11-30T00:19:39.011Z,51.36
2022-11-30T00:22:05.612Z,51.19
2022-11-30T00:24:32.138Z,51.38
2022-11-30T00:26:58.724Z,51.40
2022-11-30T00:29:29.771Z,51.10
2022-11-30T00:31:56.278Z,51.29
2022-11-30T00:34:22.764Z,51.36
2022-11-30T00:36:51.925Z,51.45
2022-11-30T00:39:18.507Z,51.44
2022-11-30T00:41:45.070Z,51.16
2022-11-30T00:44:11.562Z,51.33
2022-11-30T00:46:38.090Z,51.26
2022-11-30T00:49:04.635Z,51.74
2022-11-30T00:51:31.250Z,51.37
2022-11-30T00:53:57.789Z,51.40
2022-11-30T00:56:25.023Z,51.56
2022-11-30T00:58:51.578Z,51.31
2022-11-30T01:01:18.198Z,51.40
2022-11-30T01:03:44.868Z,51.17
2022-11-30T01:06:11.472Z,51.16
2022-11-30T01:08:38.135Z,51.25
2022-11-30T01:11:24.603Z,51.39
2022-11-30T01:13:51.684Z,51.34
2022-11-30T01:16:20.197Z,51.41
2022-11-30T01:18:46.779Z,51.22
2022-11-30T01:21:15.255Z,51.13
2022-11-30T01:23:41.835Z,51.30
2022-11-30T01:26:08.415Z,50.85
2022-11-30T01:28:35.110Z,51.26
2022-11-30T01:31:06.449Z,51.45
2022-11-30T01:33:33.288Z,51.33
2022-11-30T01:36:00.764Z,51.27
2022-11-30T01:38:31.032Z,51.36
2022-11-30T01:40:57.577Z,51.20
2022-11-30T01:43:46.598Z,51.09
2022-11-30T01:46:47.001Z,51.33
2022-11-30T01:49:19.667Z,51.37
2022-11-30T01:51:51.770Z,51.29
2022-11-30T01:54:26.767Z,51.46
2022-11-30T01:56:57.887Z,51.32
2022-11-30T01:59:24.579Z,51.40
2022-11-30T02:01:51.868Z,51.31
2022-11-30T02:04:32.524Z,51.39
2022-11-30T02:06:59.272Z,51.40
2022-11-30T02:09:26.195Z,50.90
2022-11-30T02:11:52.791Z,51.13
2022-11-30T02:14:33.547Z,51.31
2022-11-30T02:17:06.328Z,51.31
2022-11-30T02:19:58.878Z,51.20
2022-11-30T02:22:50.397Z,51.35
2022-11-30T02:25:26.375Z,51.16
2022-11-30T02:28:11.686Z,51.30
2022-11-30T02:30:40.727Z,51.12
2022-11-30T02:33:12.726Z,51.25
2022-11-30T02:35:40.768Z,51.27
2022-11-30T02:38:07.362Z,51.20
2022-11-30T02:40:33.917Z,50.94
2022-11-30T02:43:00.575Z,51.08
2022-11-30T02:45:34.578Z,51.06
2022-11-30T02:48:10.507Z,51.35
2022-11-30T02:50:48.607Z,51.12
2022-11-30T02:53:15.140Z,51.23
2022-11-30T02:55:41.769Z,51.33
2022-11-30T02:58:08.341Z,51.32
2022-11-30T03:00:34.888Z,51.64
2022-11-30T03:03:01.535Z,51.29
2022-11-30T03:05:28.098Z,51.56
2022-11-30T03:07:54.713Z,51.47
2022-11-30T03:10:21.305Z,51.59
2022-11-30T03:12:47.930Z,51.20
2022-11-30T03:15:14.536Z,51.40
2022-11-30T03:17:41.060Z,51.40
2022-11-30T03:20:08.262Z,51.03
2022-11-30T03:22:34.766Z,50.92
2022-11-30T03:25:01.300Z,51.25
2022-11-30T03:27:27.822Z,51.25
2022-11-30T03:29:54.558Z,50.95
2022-11-30T03:32:21.104Z,51.09
2022-11-30T03:34:47.936Z,51.18
2022-11-30T03:37:14.658Z,51.00
2022-11-30T03:39:41.176Z,50.86
2022-11-30T03:42:07.691Z,51.48
2022-11-30T03:44:34.178Z,51.31
2022-11-30T03:47:00.735Z,50.99
2022-11-30T03:49:27.297Z,51.14
2022-11-30T03:51:53.909Z,51.25
2022-11-30T03:54:21.648Z,51.66
2022-11-30T03:56:48.178Z,51.20
2022-11-30T03:59:14.707Z,51.08
2022-11-30T04:01:41.364Z,51.27
2022-11-30T04:04:08.011Z,51.12
2022-11-30T04:06:34.636Z,51.18
2022-11-30T04:09:01.284Z,51.33
2022-11-30T04:11:27.836Z,51.17
2022-11-30T04:13:54.444Z,50.92
2022-11-30T04:16:21.065Z,51.27
2022-11-30T04:18:47.622Z,51.00
2022-11-30T04:21:14.156Z,50.88
2022-11-30T04:23:40.678Z,51.46
2022-11-30T04:26:09.196Z,50.96
2022-11-30T04:28:35.834Z,51.08
2022-11-30T04:31:02.923Z,51.07
2022-11-30T04:33:29.752Z,50.97
2022-11-30T04:35:58.024Z,51.22
2022-11-30T04:38:24.758Z,51.20
2022-11-30T04:40:51.511Z,51.05
2022-11-30T04:43:18.083Z,51.05
2022-11-30T04:45:45.096Z,51.18
2022-11-30T04:48:11.797Z,51.01
2022-11-30T04:50:39.436Z,51.36
2022-11-30T04:53:06.112Z,51.20
2022-11-30T04:55:32.767Z,51.18
2022-11-30T04:57:59.334Z,51.43
2022-11-30T05:00:25.953Z,51.19
2022-11-30T05:02:53.301Z,50.77
2022-11-30T05:05:20.042Z,51.01
2022-11-30T05:07:50.037Z,51.32
2022-11-30T05:10:16.806Z,51.18
2022-11-30T05:12:43.461Z,51.23
2022-11-30T05:15:10.444Z,51.12
2022-11-30T05:17:36.963Z,51.53
2022-11-30T05:20:03.627Z,50.97
2022-11-30T05:22:30.183Z,50.86
2022-11-30T05:24:56.740Z,50.81
2022-11-30T05:27:23.237Z,51.01
2022-11-30T05:29:49.797Z,50.84
2022-11-30T05:32:16.351Z,51.45
2022-11-30T05:34:50.690Z,51.14
2022-11-30T05:37:18.843Z,50.87
2022-11-30T05:39:45.354Z,50.94
2022-11-30T05:42:11.932Z,51.08
2022-11-30T05:44:38.435Z,50.96
2022-11-30T05:47:05.080Z,51.03
2022-11-30T05:49:31.663Z,51.02
2022-11-30T05:51:58.191Z,51.35
2022-11-30T05:54:24.722Z,51.16
2022-11-30T05:56:54.675Z,51.50
2022-11-30T05:59:22.027Z,50.75
2022-11-30T06:01:48.716Z,51.19
2022-11-30T06:04:15.427Z,51.29
2022-11-30T06:06:41.940Z,50.96
2022-11-30T06:09:16.499Z,51.01
2022-11-30T06:11:43.099Z,51.07
2022-11-30T06:14:09.675Z,51.16
2022-11-30T06:16:39.220Z,51.02
2022-11-30T06:19:05.864Z,51.10
2022-11-30T06:21:32.461Z,51.26
2022-11-30T06:23:58.955Z,51.14
2022-11-30T06:26:25.523Z,51.42
2022-11-30T06:28:52.055Z,51.06
2022-11-30T06:31:18.711Z,51.32
2022-11-30T06:33:45.283Z,51.25
2022-11-30T06:36:11.869Z,51.04
2022-11-30T06:38:38.448Z,51.07
2022-11-30T06:41:06.159Z,50.89
2022-11-30T06:43:36.293Z,50.48
2022-11-30T06:46:03.799Z,49.22
2022-11-30T06:48:30.470Z,49.19
2022-11-30T06:50:57.229Z,49.53
2022-11-30T06:53:23.759Z,49.42
2022-11-30T06:55:50.307Z,49.48
2022-11-30T06:58:16.848Z,49.24
2022-11-30T07:00:43.425Z,49.80
2022-11-30T07:03:10.700Z,49.83
2022-11-30T07:05:44.600Z,49.82
2022-11-30T07:08:14.655Z,50.07
2022-11-30T07:10:42.169Z,50.50
2022-11-30T07:13:12.746Z,50.37
2022-11-30T07:15:40.042Z,49.09
2022-11-30T07:18:06.787Z,48.12
2022-11-30T07:20:33.365Z,47.43
2022-11-30T07:23:19.880Z,46.87
2022-11-30T07:26:05.121Z,45.97
2022-11-30T07:28:31.694Z,45.47
2022-11-30T07:30:58.199Z,44.67
2022-11-30T07:33:24.694Z,44.94
2022-11-30T07:35:53.496Z,44.04
2022-11-30T07:38:20.311Z,44.10
2022-11-30T07:40:46.900Z,43.97
2022-11-30T07:43:13.395Z,43.77
2022-11-30T07:45:40.049Z,44.74
2022-11-30T07:48:06.737Z,45.07
2022-11-30T07:50:33.292Z,45.29
2022-11-30T07:52:59.826Z,45.50
2022-11-30T07:55:26.421Z,45.38
2022-11-30T07:57:53.223Z,44.75
2022-11-30T08:00:19.713Z,45.35
2022-11-30T08:02:46.217Z,45.50
2022-11-30T08:05:12.976Z,45.77
2022-11-30T08:07:39.527Z,46.28
2022-11-30T08:10:06.688Z,46.65
2022-11-30T08:12:33.300Z,46.73
2022-11-30T08:15:19.444Z,47.15
2022-11-30T08:17:46.342Z,47.06
2022-11-30T08:20:13.089Z,47.53
2022-11-30T08:22:39.645Z,47.50
2022-11-30T08:25:06.704Z,47.70
2022-11-30T08:27:33.215Z,47.21
2022-11-30T08:29:59.828Z,47.97
2022-11-30T08:32:26.302Z,48.08
2022-11-30T08:34:52.899Z,48.19
2022-11-30T08:37:19.436Z,48.15
2022-11-30T08:39:46.028Z,48.31
2022-11-30T08:42:12.554Z,48.34
2022-11-30T08:44:39.343Z,48.13
2022-11-30T08:47:07.339Z,48.43
2022-11-30T08:49:33.907Z,48.60
2022-11-30T08:52:17.506Z,48.60
2022-11-30T08:54:46.120Z,48.66
2022-11-30T08:57:14.156Z,48.62
2022-11-30T08:59:40.679Z,48.75
2022-11-30T09:02:10.042Z,48.65
2022-11-30T09:04:36.586Z,48.92
2022-11-30T09:07:03.730Z,48.88
2022-11-30T09:09:30.355Z,48.86
2022-11-30T09:11:57.006Z,49.08
2022-11-30T09:14:23.566Z,48.62
2022-11-30T09:16:50.117Z,49.00
2022-11-30T09:19:16.703Z,49.10
2022-11-30T09:21:49.770Z,49.10
2022-11-30T09:24:18.381Z,49.38
2022-11-30T09:26:44.897Z,48.89
2022-11-30T09:29:11.410Z,49.15
2022-11-30T09:31:37.959Z,49.18
2022-11-30T09:34:04.487Z,49.13
2022-11-30T09:36:32.984Z,49.32
2022-11-30T09:38:59.556Z,48.27
2022-11-30T09:41:45.439Z,48.58
2022-11-30T09:44:11.856Z,48.56
2022-11-30T09:46:40.972Z,48.69
2022-11-30T09:49:13.245Z,48.77
2022-11-30T09:51:43.064Z,48.80
2022-11-30T09:54:38.107Z,48.93
2022-11-30T09:57:12.826Z,48.91
2022-11-30T09:59:39.322Z,48.97
2022-11-30T10:02:16.429Z,48.92
2022-11-30T10:04:43.065Z,49.24
2022-11-30T10:07:19.262Z,49.10
2022-11-30T10:10:31.865Z,49.19
2022-11-30T10:13:18.406Z,49.42
2022-11-30T10:15:51.027Z,49.36
2022-11-30T10:18:32.512Z,49.42
2022-11-30T10:21:15.590Z,49.56
2022-11-30T10:24:11.431Z,49.42
2022-11-30T10:26:40.054Z,49.50
2022-11-30T10:29:13.060Z,49.67
2022-11-30T10:31:40.005Z,49.65
2022-11-30T10:34:12.636Z,49.65
2022-11-30T10:36:44.155Z,49.49
2022-11-30T10:39:27.549Z,49.90
2022-11-30T10:42:04.489Z,49.80
2022-11-30T10:44:34.011Z,49.71
2022-11-30T10:47:13.730Z,49.80
2022-11-30T10:49:43.756Z,49.55
2022-11-30T10:52:12.666Z,50.03
2022-11-30T10:54:39.179Z,50.04
2022-11-30T10:57:05.818Z,49.80
2022-11-30T10:59:52.933Z,50.06
2022-11-30T11:02:39.714Z,49.56
2022-11-30T11:05:29.153Z,49.63
2022-11-30T11:08:07.091Z,49.80
2022-11-30T11:10:44.747Z,49.81
2022-11-30T11:13:19.605Z,49.89
2022-11-30T11:15:57.275Z,49.74
2022-11-30T11:18:33.988Z,49.80
2022-11-30T11:21:04.410Z,49.53
2022-11-30T11:23:36.974Z,49.91
2022-11-30T11:26:03.983Z,49.88
2022-11-30T11:28:30.527Z,49.88
2022-11-30T11:30:57.567Z,49.67
2022-11-30T11:33:28.157Z,49.82
2022-11-30T11:35:56.140Z,49.77
2022-11-30T11:38:22.526Z,50.47
2022-11-30T11:41:05.563Z,49.83
2022-11-30T11:43:33.259Z,49.68
2022-11-30T11:46:17.765Z,49.91
2022-11-30T11:48:48.887Z,49.87
2022-11-30T11:51:15.417Z,50.07
2022-11-30T11:53:53.580Z,49.98
2022-11-30T11:56:23.591Z,50.20
2022-11-30T11:59:11.798Z,50.24
2022-11-30T12:01:50.445Z,50.08
2022-11-30T12:04:45.886Z,50.17
2022-11-30T12:07:18.571Z,49.96
2022-11-30T12:10:28.470Z,50.08
2022-11-30T12:12:58.768Z,50.00
2022-11-30T12:15:32.947Z,49.99
2022-11-30T12:18:02.387Z,50.29
2022-11-30T12:20:51.104Z,50.30
2022-11-30T12:23:46.884Z,50.10
2022-11-30T12:26:22.786Z,50.08
2022-11-30T12:29:23.122Z,49.98
2022-11-30T12:31:58.391Z,50.15
2022-11-30T12:34:34.399Z,49.99
2022-11-30T12:37:04.078Z,50.16
2022-11-30T12:39:41.148Z,50.13
2022-11-30T12:42:10.599Z,49.93
2022-11-30T12:44:57.000Z,50.09
2022-11-30T12:47:43.273Z,50.30
2022-11-30T12:50:31.662Z,50.19
2022-11-30T12:53:05.385Z,50.26
2022-11-30T12:55:40.477Z,50.32
2022-11-30T12:58:19.321Z,50.19
2022-11-30T13:01:21.579Z,50.38
2022-11-30T13:03:53.763Z,49.75
2022-11-30T13:06:40.960Z,50.19
2022-11-30T13:09:19.253Z,50.35
2022-11-30T13:11:48.791Z,50.11
2022-11-30T13:14:35.548Z,50.21
2022-11-30T13:17:04.318Z,50.31
2022-11-30T13:19:52.193Z,50.47
2022-11-30T13:23:11.255Z,50.35
2022-11-30T13:26:12.999Z,50.31
2022-11-30T13:28:42.470Z,50.31
2022-11-30T13:31:22.215Z,50.33
2022-11-30T13:33:54.761Z,50.06
2022-11-30T13:36:39.716Z,50.15
2022-11-30T13:39:15.366Z,50.11
2022-11-30T13:41:53.289Z,50.39
2022-11-30T13:44:37.123Z,50.41
2022-11-30T13:47:18.743Z,50.05
2022-11-30T13:49:45.649Z,50.31
2022-11-30T13:52:22.676Z,50.33
2022-11-30T13:54:51.279Z,50.35
2022-11-30T13:57:38.248Z,50.41
2022-11-30T14:00:44.082Z,50.28
2022-11-30T14:03:22.575Z,50.59
2022-11-30T14:05:53.272Z,50.18
2022-11-30T14:08:22.497Z,50.37
2022-11-30T14:10:52.438Z,50.39
2022-11-30T14:13:21.205Z,50.20
2022-11-30T14:15:47.702Z,50.30
2022-11-30T14:18:16.989Z,50.41
2022-11-30T14:20:54.325Z,50.18
2022-11-30T14:23:48.887Z,50.53
2022-11-30T14:26:17.736Z,50.35
2022-11-30T14:28:50.818Z,50.43
2022-11-30T14:31:20.906Z,50.05
2022-11-30T14:33:58.528Z,50.13
2022-11-30T14:36:27.225Z,50.31
2022-11-30T14:38:53.838Z,50.33
2022-11-30T14:41:26.763Z,50.33
2022-11-30T14:44:02.121Z,50.50
2022-11-30T14:46:29.188Z,50.41
2022-11-30T14:49:14.810Z,50.42
2022-11-30T14:51:47.616Z,50.42
2022-11-30T14:54:35.619Z,50.31
2022-11-30T14:57:13.746Z,50.27
2022-11-30T14:59:50.342Z,50.22
2022-11-30T15:02:33.650Z,50.45
2022-11-30T15:05:00.284Z,50.45
2022-11-30T15:07:26.993Z,50.43
2022-11-30T15:10:18.099Z,50.39
2022-11-30T15:12:46.735Z,50.47
2022-11-30T15:15:24.008Z,50.29
2022-11-30T15:18:06.850Z,50.13
2022-11-30T15:20:45.357Z,50.17
2022-11-30T15:23:15.223Z,50.21
2022-11-30T15:25:47.175Z,50.24
2022-11-30T15:28:17.989Z,50.25
2022-11-30T15:30:44.840Z,50.00
2022-11-30T15:33:18.983Z,50.29
2022-11-30T15:36:12.427Z,50.54
2022-11-30T15:38:33.046Z,50.09
2022-11-30T15:41:07.063Z,50.35
2022-11-30T15:43:37.625Z,50.45
2022-11-30T15:46:04.698Z,50.34
2022-11-30T15:48:35.576Z,50.25
2022-11-30T15:51:02.185Z,50.11
2022-11-30T15:53:32.827Z,50.57
2022-11-30T15:56:06.778Z,50.32
2022-11-30T15:58:45.696Z,50.57
2022-11-30T16:01:18.688Z,50.59
2022-11-30T16:04:17.831Z,50.39
2022-11-30T16:06:45.929Z,50.39
2022-11-30T16:09:20.427Z,50.70
2022-11-30T16:11:48.616Z,49.78
2022-11-30T16:14:16.821Z,48.13
2022-11-30T16:16:43.718Z,46.68
2022-11-30T16:19:10.496Z,45.99
2022-11-30T16:21:37.042Z,45.77
2022-11-30T16:24:03.725Z,46.71
2022-11-30T16:29:16.865Z,47.63
2022-11-30T16:31:43.481Z,47.82
2022-11-30T16:34:12.492Z,48.17
2022-11-30T16:36:39.160Z,48.13
2022-11-30T16:39:05.963Z,48.38
2022-11-30T16:41:32.544Z,48.82
2022-11-30T16:43:59.047Z,48.39
2022-11-30T16:46:26.976Z,46.03
2022-11-30T16:48:53.645Z,44.50
2022-11-30T16:51:30.787Z,43.41
2022-11-30T16:53:57.674Z,43.18
2022-11-30T16:56:24.426Z,43.93
2022-11-30T16:58:51.124Z,44.62
2022-11-30T17:01:36.820Z,44.83
2022-11-30T17:04:38.894Z,45.48
2022-11-30T17:07:05.471Z,45.79
2022-11-30T17:09:34.553Z,46.21
2022-11-30T17:12:01.268Z,46.27
2022-11-30T17:14:28.328Z,46.62
2022-11-30T17:16:55.312Z,46.97
2022-11-30T17:19:23.009Z,46.90
2022-11-30T17:21:50.903Z,47.18
2022-11-30T17:24:17.476Z,47.29
2022-11-30T17:26:44.008Z,47.39
2022-11-30T17:29:10.550Z,47.27
2022-11-30T17:31:37.204Z,47.33
2022-11-30T17:34:03.873Z,47.75
2022-11-30T17:36:30.364Z,47.44
2022-11-30T17:38:56.985Z,48.17
2022-11-30T17:41:23.636Z,48.18
2022-11-30T17:43:50.254Z,47.99
2022-11-30T17:46:17.862Z,47.79
2022-11-30T17:48:44.599Z,47.88
2022-11-30T17:51:11.606Z,48.01
2022-11-30T17:53:38.910Z,48.06
2022-11-30T17:56:07.033Z,47.95
2022-11-30T17:58:36.098Z,48.22
2022-11-30T18:01:05.356Z,48.33
2022-11-30T18:03:32.019Z,48.12
2022-11-30T18:06:01.851Z,48.36
2022-11-30T18:08:29.291Z,48.48
2022-11-30T18:10:55.985Z,48.50
2022-11-30T18:13:22.644Z,48.56
2022-11-30T18:15:49.241Z,48.30
2022-11-30T18:18:15.775Z,48.56
2022-11-30T18:20:42.368Z,48.48
2022-11-30T18:23:09.027Z,48.49
2022-11-30T18:25:35.887Z,48.60
2022-11-30T18:28:02.471Z,48.59
2022-11-30T18:30:29.054Z,48.75
2022-11-30T18:32:55.668Z,48.37
2022-11-30T18:35:22.387Z,48.81
2022-11-30T18:37:48.878Z,48.47
2022-11-30T18:40:15.502Z,48.58
2022-11-30T18:42:42.044Z,48.42
2022-11-30T18:45:09.003Z,48.73
2022-11-30T18:47:35.576Z,48.42
2022-11-30T18:50:02.061Z,48.59
2022-11-30T18:52:28.558Z,49.15
2022-11-30T18:54:55.108Z,49.10
2022-11-30T18:57:21.664Z,48.78
2022-11-30T18:59:53.766Z,48.81
2022-11-30T19:02:21.656Z,49.01
2022-11-30T19:04:48.462Z,48.39
2022-11-30T19:07:15.136Z,48.50
2022-11-30T19:09:42.497Z,48.95
2022-11-30T19:12:09.026Z,48.80
2022-11-30T19:14:35.589Z,49.36
2022-11-30T19:17:02.107Z,48.60
2022-11-30T19:19:31.210Z,48.70
2022-11-30T19:21:58.287Z,48.52
2022-11-30T19:24:24.795Z,49.14
2022-11-30T19:26:51.353Z,49.08
2022-11-30T19:29:17.894Z,49.01
2022-11-30T19:31:44.509Z,49.11
2022-11-30T19:34:13.230Z,49.02
2022-11-30T19:36:40.073Z,49.03
2022-11-30T19:39:06.611Z,48.71
2022-11-30T19:41:33.168Z,48.91
2022-11-30T19:44:03.924Z,49.26
2022-11-30T19:46:31.940Z,49.13
2022-11-30T19:49:00.660Z,49.02
2022-11-30T19:51:27.507Z,49.17
2022-11-30T19:53:55.603Z,49.12
2022-11-30T19:56:23.268Z,48.93
2022-11-30T19:58:49.767Z,49.01
2022-11-30T20:01:19.331Z,49.29
2022-11-30T20:03:45.953Z,49.30
2022-11-30T20:06:12.507Z,49.38
2022-11-30T20:08:39.170Z,49.31
2022-11-30T20:11:09.700Z,49.29
2022-11-30T20:13:36.320Z,49.05
2022-11-30T20:16:09.775Z,49.07
2022-11-30T20:18:39.073Z,49.14
2022-11-30T20:21:15.728Z,49.25
2022-11-30T20:23:42.579Z,48.99
2022-11-30T20:26:16.040Z,49.00
2022-11-30T20:28:42.864Z,49.12
2022-11-30T20:31:10.348Z,48.81
2022-11-30T20:33:37.191Z,49.04
2022-11-30T20:36:08.284Z,49.27
2022-11-30T20:38:34.907Z,49.16
2022-11-30T20:41:02.111Z,49.17
2022-11-30T20:43:28.694Z,49.21
2022-11-30T20:45:55.392Z,49.18
2022-11-30T20:48:22.079Z,48.68
2022-11-30T20:51:14.002Z,49.19
2022-11-30T20:53:35.181Z,49.03
2022-11-30T20:56:01.812Z,49.17
2022-11-30T20:58:28.384Z,48.99
2022-11-30T21:00:54.885Z,49.13
2022-11-30T21:03:21.375Z,49.56
2022-11-30T21:05:47.922Z,49.73
2022-11-30T21:08:14.521Z,49.21
2022-11-30T21:10:41.046Z,49.21
2022-11-30T21:13:07.620Z,49.15
2022-11-30T21:15:34.201Z,48.75
2022-11-30T21:18:00.843Z,49.10
2022-11-30T21:20:27.496Z,49.09
2022-11-30T21:22:54.018Z,48.84
2022-11-30T21:25:20.616Z,48.79
2022-11-30T21:27:51.734Z,49.06
2022-11-30T21:30:18.660Z,49.03
2022-11-30T21:32:45.228Z,48.73
2022-11-30T21:35:11.780Z,48.66
2022-11-30T21:37:38.289Z,48.96
2022-11-30T21:40:05.275Z,49.01
2022-11-30T21:42:31.770Z,48.99
2022-11-30T21:44:58.340Z,49.31
2022-11-30T21:47:24.908Z,49.23
2022-11-30T21:49:51.375Z,48.98
2022-11-30T21:52:17.954Z,49.19
2022-11-30T21:54:44.534Z,49.37
2022-11-30T21:57:11.066Z,49.28
2022-11-30T21:59:37.595Z,49.42
2022-11-30T22:02:04.363Z,49.15
2022-11-30T22:04:30.918Z,49.53
2022-11-30T22:06:57.502Z,49.32
2022-11-30T22:09:24.038Z,49.22
2022-11-30T22:11:50.636Z,49.04
2022-11-30T22:14:17.128Z,49.29
2022-11-30T22:16:43.785Z,49.29
2022-11-30T22:19:10.458Z,49.07
2022-11-30T22:21:36.991Z,49.05
2022-11-30T22:24:08.039Z,49.10
2022-11-30T22:26:38.851Z,49.16
2022-11-30T22:29:13.714Z,49.48
2022-11-30T22:31:41.347Z,49.35
2022-11-30T22:34:07.999Z,49.29
2022-11-30T22:36:35.300Z,49.07
2022-11-30T22:39:04.557Z,49.32
2022-11-30T22:41:31.214Z,49.16
2022-11-30T22:43:57.985Z,49.25
2022-11-30T22:46:28.743Z,49.33
2022-11-30T22:48:55.398Z,49.28
2022-11-30T22:51:26.729Z,49.07
2022-11-30T22:53:53.550Z,49.21
2022-11-30T22:56:21.537Z,49.08
2022-11-30T22:58:48.866Z,49.09
2022-11-30T23:01:17.074Z,49.21
2022-11-30T23:03:44.301Z,48.88
2022-11-30T23:06:11.283Z,49.33
2022-11-30T23:08:38.001Z,49.26
2022-11-30T23:11:06.478Z,49.18
2022-11-30T23:13:33.051Z,49.33
2022-11-30T23:16:00.112Z,49.27
2022-11-30T23:18:27.939Z,49.06
2022-11-30T23:20:55.453Z,49.26
2022-11-30T23:23:22.894Z,49.21
2022-11-30T23:25:49.548Z,49.23
2022-11-30T23:28:16.681Z,49.14
2022-11-30T23:30:43.240Z,49.17
2022-11-30T23:33:10.272Z,49.56
2022-11-30T23:35:38.320Z,49.28
2022-11-30T23:38:04.852Z,49.15
2022-11-30T23:40:31.630Z,49.46
2022-11-30T23:42:58.181Z,49.19
2022-11-30T23:45:24.904Z,49.33
2022-11-30T23:47:51.467Z,49.26
2022-11-30T23:50:17.973Z,49.24
2022-11-30T23:52:44.490Z,49.18
2022-11-30T23:55:10.989Z,49.29
2022-11-30T23:57:37.495Z,49.74
